sensor_id;sensor_type;location;lat;lon;timestamp;pressure;altitude;pressure_sealevel;temperature;humidity
75886;BME280;64561;44.018;10.144;2023-04-16T00:01:59;100742.19;;;10.68;75.18
75886;BME280;64561;44.018;10.144;2023-04-16T00:04:26;100748.84;;;10.60;74.25
75886;BME280;64561;44.018;10.144;2023-04-16T00:06:53;100749.56;;;10.54;73.91
75886;BME280;64561;44.018;10.144;2023-04-16T00:09:20;100749.72;;;10.62;74.48
75886;BME280;64561;44.018;10.144;2023-04-16T00:11:47;100750.81;;;10.71;75.40
75886;BME280;64561;44.018;10.144;2023-04-16T00:14:14;100752.66;;;10.79;76.04
75886;BME280;64561;44.018;10.144;2023-04-16T00:16:42;100741.72;;;10.86;75.00
75886;BME280;64561;44.018;10.144;2023-04-16T00:19:09;100738.25;;;10.82;74.57
75886;BME280;64561;44.018;10.144;2023-04-16T00:21:36;100738.38;;;10.88;74.80
75886;BME280;64561;44.018;10.144;2023-04-16T00:24:03;100743.59;;;10.93;75.50
75886;BME280;64561;44.018;10.144;2023-04-16T00:26:30;100743.66;;;10.96;75.24
75886;BME280;64561;44.018;10.144;2023-04-16T00:28:57;100751.81;;;10.78;75.06
75886;BME280;64561;44.018;10.144;2023-04-16T00:31:28;100746.63;;;10.75;74.24
75886;BME280;64561;44.018;10.144;2023-04-16T00:33:56;100746.22;;;10.57;74.80
75886;BME280;64561;44.018;10.144;2023-04-16T00:36:24;100750.63;;;10.62;76.60
75886;BME280;64561;44.018;10.144;2023-04-16T00:38:51;100747.34;;;10.69;77.52
75886;BME280;64561;44.018;10.144;2023-04-16T00:41:18;100749.06;;;10.70;77.47
75886;BME280;64561;44.018;10.144;2023-04-16T00:43:45;100739.09;;;10.43;76.92
75886;BME280;64561;44.018;10.144;2023-04-16T00:46:12;100745.16;;;10.14;74.59
75886;BME280;64561;44.018;10.144;2023-04-16T00:48:39;100759.00;;;10.22;73.68
75886;BME280;64561;44.018;10.144;2023-04-16T00:51:08;100756.75;;;10.33;74.98
75886;BME280;64561;44.018;10.144;2023-04-16T00:53:35;100748.31;;;10.37;73.42
75886;BME280;64561;44.018;10.144;2023-04-16T00:56:05;100746.94;;;10.51;73.98
75886;BME280;64561;44.018;10.144;2023-04-16T00:58:33;100746.16;;;10.53;74.14
75886;BME280;64561;44.018;10.144;2023-04-16T01:01:01;100743.53;;;10.50;73.87
75886;BME280;64561;44.018;10.144;2023-04-16T01:03:39;100754.56;;;10.49;74.22
75886;BME280;64561;44.018;10.144;2023-04-16T01:06:06;100758.44;;;10.32;74.91
75886;BME280;64561;44.018;10.144;2023-04-16T01:08:34;100761.88;;;10.34;74.83
75886;BME280;64561;44.018;10.144;2023-04-16T01:11:01;100757.00;;;10.43;76.64
75886;BME280;64561;44.018;10.144;2023-04-16T01:13:29;100757.00;;;10.43;75.84
75886;BME280;64561;44.018;10.144;2023-04-16T01:15:56;100755.28;;;10.44;76.57
75886;BME280;64561;44.018;10.144;2023-04-16T01:18:24;100762.03;;;10.40;75.98
75886;BME280;64561;44.018;10.144;2023-04-16T01:20:51;100761.94;;;10.36;75.78
75886;BME280;64561;44.018;10.144;2023-04-16T01:23:18;100765.44;;;10.41;76.39
75886;BME280;64561;44.018;10.144;2023-04-16T01:25:46;100754.56;;;10.49;76.24
75886;BME280;64561;44.018;10.144;2023-04-16T01:28:13;100759.03;;;10.58;75.64
75886;BME280;64561;44.018;10.144;2023-04-16T01:30:40;100754.56;;;10.49;75.78
75886;BME280;64561;44.018;10.144;2023-04-16T01:33:17;100757.03;;;10.45;75.47
75886;BME280;64561;44.018;10.144;2023-04-16T01:35:43;100762.88;;;10.39;74.86
75886;BME280;64561;44.018;10.144;2023-04-16T01:38:14;100762.25;;;10.15;75.12
75886;BME280;64561;44.018;10.144;2023-04-16T01:40:40;100763.97;;;10.16;75.81
75886;BME280;64561;44.018;10.144;2023-04-16T01:43:07;100769.41;;;10.28;77.09
75886;BME280;64561;44.018;10.144;2023-04-16T01:45:34;100769.25;;;10.22;75.18
75886;BME280;64561;44.018;10.144;2023-04-16T01:48:02;100768.25;;;10.17;76.05
75886;BME280;64561;44.018;10.144;2023-04-16T01:50:30;100758.94;;;10.19;76.22
75886;BME280;64561;44.018;10.144;2023-04-16T01:52:57;100754.75;;;10.22;76.55
75886;BME280;64561;44.018;10.144;2023-04-16T01:55:24;100771.69;;;10.17;76.30
75886;BME280;64561;44.018;10.144;2023-04-16T01:57:51;100771.72;;;10.19;74.24
75886;BME280;64561;44.018;10.144;2023-04-16T02:00:19;100776.81;;;10.17;75.38
75886;BME280;64561;44.018;10.144;2023-04-16T02:02:46;100779.25;;;10.13;75.46
75886;BME280;64561;44.018;10.144;2023-04-16T02:05:22;100781.03;;;10.17;75.15
75886;BME280;64561;44.018;10.144;2023-04-16T02:07:49;100782.03;;;10.22;76.02
75886;BME280;64561;44.018;10.144;2023-04-16T02:10:16;100788.03;;;10.24;76.51
75886;BME280;64561;44.018;10.144;2023-04-16T02:12:43;100785.28;;;10.16;77.72
75886;BME280;64561;44.018;10.144;2023-04-16T02:15:11;100784.56;;;10.20;77.64
75886;BME280;64561;44.018;10.144;2023-04-16T02:17:38;100787.22;;;10.25;77.99
75886;BME280;64561;44.018;10.144;2023-04-16T02:20:08;100788.03;;;10.24;77.43
75886;BME280;64561;44.018;10.144;2023-04-16T02:22:42;100785.97;;;10.09;76.15
75886;BME280;64561;44.018;10.144;2023-04-16T02:25:12;100786.97;;;10.14;76.20
75886;BME280;64561;44.018;10.144;2023-04-16T02:27:40;100795.44;;;10.13;77.43
75886;BME280;64561;44.018;10.144;2023-04-16T02:30:22;100801.47;;;10.15;77.64
75886;BME280;64561;44.018;10.144;2023-04-16T02:32:50;100809.22;;;10.20;77.63
75886;BME280;64561;44.018;10.144;2023-04-16T02:35:18;100804.09;;;9.85;75.69
75886;BME280;64561;44.018;10.144;2023-04-16T02:37:45;100807.19;;;9.73;77.50
75886;BME280;64561;44.018;10.144;2023-04-16T02:40:12;100804.09;;;9.85;78.07
75886;BME280;64561;44.018;10.144;2023-04-16T02:42:39;100788.09;;;9.92;78.58
75886;BME280;64561;44.018;10.144;2023-04-16T02:45:07;100801.19;;;10.04;77.58
75886;BME280;64561;44.018;10.144;2023-04-16T02:47:34;100797.91;;;10.08;76.11
75886;BME280;64561;44.018;10.144;2023-04-16T02:50:01;100791.94;;;10.10;75.05
75886;BME280;64561;44.018;10.144;2023-04-16T02:52:28;100797.28;;;9.84;74.87
75886;BME280;64561;44.018;10.144;2023-04-16T02:54:55;100797.84;;;9.74;76.63
75886;BME280;64561;44.018;10.144;2023-04-16T02:57:22;100800.38;;;9.72;75.31
75886;BME280;64561;44.018;10.144;2023-04-16T02:59:48;100805.72;;;9.81;76.54
75886;BME280;64561;44.018;10.144;2023-04-16T03:02:15;100811.00;;;9.89;75.87
75886;BME280;64561;44.018;10.144;2023-04-16T03:04:42;100811.84;;;9.88;74.12
75886;BME280;64561;44.018;10.144;2023-04-16T03:07:09;100810.22;;;9.92;74.73
75886;BME280;64561;44.018;10.144;2023-04-16T03:09:38;100816.38;;;9.98;75.40
75886;BME280;64561;44.018;10.144;2023-04-16T03:12:05;100814.03;;;10.06;76.11
75886;BME280;64561;44.018;10.144;2023-04-16T03:14:32;100816.44;;;10.01;75.01
75886;BME280;64561;44.018;10.144;2023-04-16T03:16:58;100817.28;;;10.00;74.66
75886;BME280;64561;44.018;10.144;2023-04-16T03:19:25;100818.41;;;9.78;75.24
75886;BME280;64561;44.018;10.144;2023-04-16T03:21:52;100836.81;;;9.67;75.28
75886;BME280;64561;44.018;10.144;2023-04-16T03:24:19;100826.69;;;9.70;75.63
75886;BME280;64561;44.018;10.144;2023-04-16T03:26:47;100833.41;;;9.66;75.97
75886;BME280;64561;44.018;10.144;2023-04-16T03:29:14;100843.72;;;9.69;77.02
75886;BME280;64561;44.018;10.144;2023-04-16T03:31:41;100838.91;;;9.50;76.01
75886;BME280;64561;44.018;10.144;2023-04-16T03:34:08;100839.03;;;9.54;76.40
75886;BME280;64561;44.018;10.144;2023-04-16T03:36:38;100829.72;;;9.56;77.19
75886;BME280;64561;44.018;10.144;2023-04-16T03:39:05;100839.28;;;9.64;77.73
75886;BME280;64561;44.018;10.144;2023-04-16T03:41:32;100838.53;;;9.66;77.34
75886;BME280;64561;44.018;10.144;2023-04-16T03:43:59;100834.38;;;9.41;74.90
75886;BME280;64561;44.018;10.144;2023-04-16T03:46:26;100843.56;;;9.34;75.35
75886;BME280;64561;44.018;10.144;2023-04-16T03:48:53;100846.53;;;9.20;76.53
75886;BME280;64561;44.018;10.144;2023-04-16T03:51:22;100845.69;;;9.19;77.39
75886;BME280;64561;44.018;10.144;2023-04-16T03:53:52;100854.69;;;9.08;76.93
75886;BME280;64561;44.018;10.144;2023-04-16T03:56:19;100851.47;;;9.13;76.20
75886;BME280;64561;44.018;10.144;2023-04-16T03:58:46;100846.81;;;9.29;76.54
75886;BME280;64561;44.018;10.144;2023-04-16T04:01:12;100846.13;;;9.34;76.30
75886;BME280;64561;44.018;10.144;2023-04-16T04:03:39;100868.38;;;9.10;76.30
75886;BME280;64561;44.018;10.144;2023-04-16T04:06:07;100876.59;;;9.01;77.56
75886;BME280;64561;44.018;10.144;2023-04-16T04:08:34;100870.66;;;9.01;77.04
75886;BME280;64561;44.018;10.144;2023-04-16T04:11:03;100873.78;;;8.92;77.75
75886;BME280;64561;44.018;10.144;2023-04-16T04:13:31;100874.13;;;9.03;78.66
75886;BME280;64561;44.018;10.144;2023-04-16T04:15:58;100862.63;;;9.17;78.01
75886;BME280;64561;44.018;10.144;2023-04-16T04:18:26;100864.50;;;9.23;77.35
75886;BME280;64561;44.018;10.144;2023-04-16T04:20:52;100877.25;;;9.23;77.32
75886;BME280;64561;44.018;10.144;2023-04-16T04:23:23;100889.09;;;8.92;76.54
75886;BME280;64561;44.018;10.144;2023-04-16T04:25:50;100890.78;;;8.91;76.10
75886;BME280;64561;44.018;10.144;2023-04-16T04:28:17;100893.94;;;8.84;76.17
75886;BME280;64561;44.018;10.144;2023-04-16T04:30:43;100891.34;;;8.83;76.56
75886;BME280;64561;44.018;10.144;2023-04-16T04:33:11;100886.91;;;8.77;75.40
75886;BME280;64561;44.018;10.144;2023-04-16T04:35:38;100897.00;;;8.74;76.15
75886;BME280;64561;44.018;10.144;2023-04-16T04:38:06;100902.69;;;8.65;77.47
75886;BME280;64561;44.018;10.144;2023-04-16T04:40:33;100904.00;;;8.80;77.57
75886;BME280;64561;44.018;10.144;2023-04-16T04:43:01;100904.75;;;8.76;76.45
75886;BME280;64561;44.018;10.144;2023-04-16T04:45:28;100907.19;;;8.73;75.90
75886;BME280;64561;44.018;10.144;2023-04-16T04:47:57;100917.13;;;8.65;76.54
75886;BME280;64561;44.018;10.144;2023-04-16T04:50:24;100927.03;;;8.56;77.53
75886;BME280;64561;44.018;10.144;2023-04-16T04:52:51;100932.06;;;8.54;77.86
75886;BME280;64561;44.018;10.144;2023-04-16T04:55:18;100925.59;;;8.64;77.69
75886;BME280;64561;44.018;10.144;2023-04-16T04:57:45;100926.97;;;8.80;78.23
75886;BME280;64561;44.018;10.144;2023-04-16T05:00:12;100938.31;;;8.88;77.98
75886;BME280;64561;44.018;10.144;2023-04-16T05:02:48;100940.47;;;8.77;77.39
75886;BME280;64561;44.018;10.144;2023-04-16T05:05:16;100943.25;;;8.83;78.25
75886;BME280;64561;44.018;10.144;2023-04-16T05:07:43;100938.31;;;8.88;78.43
75886;BME280;64561;44.018;10.144;2023-04-16T05:10:10;100941.38;;;9.05;78.70
75886;BME280;64561;44.018;10.144;2023-04-16T05:12:36;100941.63;;;9.12;78.36
75886;BME280;64561;44.018;10.144;2023-04-16T05:15:03;100946.53;;;9.06;77.22
75886;BME280;64561;44.018;10.144;2023-04-16T05:17:30;100944.19;;;8.87;76.02
75886;BME280;64561;44.018;10.144;2023-04-16T05:19:57;100944.25;;;8.88;76.87
75886;BME280;64561;44.018;10.144;2023-04-16T05:22:24;100947.84;;;8.93;77.01
75886;BME280;64561;44.018;10.144;2023-04-16T05:24:51;100967.44;;;8.95;77.04
75886;BME280;64561;44.018;10.144;2023-04-16T05:27:17;100968.34;;;8.97;77.08
75886;BME280;64561;44.018;10.144;2023-04-16T05:29:44;100968.00;;;8.86;77.25
75886;BME280;64561;44.018;10.144;2023-04-16T05:32:11;100967.44;;;8.95;78.01
75886;BME280;64561;44.018;10.144;2023-04-16T05:34:38;100974.53;;;9.03;77.63
75886;BME280;64561;44.018;10.144;2023-04-16T05:37:07;100974.63;;;9.06;77.94
75886;BME280;64561;44.018;10.144;2023-04-16T05:39:34;100976.44;;;9.10;77.70
75886;BME280;64561;44.018;10.144;2023-04-16T05:42:00;100983.41;;;8.89;77.61
75886;BME280;64561;44.018;10.144;2023-04-16T05:44:27;100980.44;;;8.77;79.43
75886;BME280;64561;44.018;10.144;2023-04-16T05:46:54;100985.66;;;8.80;79.41
75886;BME280;64561;44.018;10.144;2023-04-16T05:49:21;100978.28;;;8.89;79.37
75886;BME280;64561;44.018;10.144;2023-04-16T05:51:47;100977.97;;;9.05;78.74
75886;BME280;64561;44.018;10.144;2023-04-16T05:54:16;100980.94;;;9.18;79.20
75886;BME280;64561;44.018;10.144;2023-04-16T05:56:43;100981.91;;;9.21;78.37
75886;BME280;64561;44.018;10.144;2023-04-16T05:59:10;101000.38;;;9.41;76.53
75886;BME280;64561;44.018;10.144;2023-04-16T06:01:40;100998.19;;;9.52;74.62
75886;BME280;64561;44.018;10.144;2023-04-16T06:04:06;100999.50;;;9.68;75.42
75886;BME280;64561;44.018;10.144;2023-04-16T06:06:33;101002.44;;;9.80;75.62
75886;BME280;64561;44.018;10.144;2023-04-16T06:09:03;101002.78;;;9.92;76.05
75886;BME280;64561;44.018;10.144;2023-04-16T06:11:29;101009.06;;;10.02;76.85
75886;BME280;64561;44.018;10.144;2023-04-16T06:13:56;101007.72;;;10.15;74.62
75886;BME280;64561;44.018;10.144;2023-04-16T06:16:24;101001.00;;;10.20;73.69
75886;BME280;64561;44.018;10.144;2023-04-16T06:18:51;101002.97;;;10.27;74.16
75886;BME280;64561;44.018;10.144;2023-04-16T06:21:18;101004.06;;;10.35;74.26
75886;BME280;64561;44.018;10.144;2023-04-16T06:23:45;101008.44;;;10.41;73.76
75886;BME280;64561;44.018;10.144;2023-04-16T06:26:12;101004.34;;;10.46;74.66
75886;BME280;64561;44.018;10.144;2023-04-16T06:28:39;100994.25;;;10.50;73.42
75886;BME280;64561;44.018;10.144;2023-04-16T06:31:05;100998.75;;;10.61;72.51
75886;BME280;64561;44.018;10.144;2023-04-16T06:33:32;101010.97;;;10.71;72.27
75886;BME280;64561;44.018;10.144;2023-04-16T06:35:59;101007.06;;;10.84;70.33
75886;BME280;64561;44.018;10.144;2023-04-16T06:38:26;101005.88;;;11.04;68.70
75886;BME280;64561;44.018;10.144;2023-04-16T06:40:53;100995.88;;;11.15;67.33
75886;BME280;64561;44.018;10.144;2023-04-16T06:43:19;100996.72;;;11.15;66.13
75886;BME280;64561;44.018;10.144;2023-04-16T06:45:47;100990.09;;;11.24;66.49
75886;BME280;64561;44.018;10.144;2023-04-16T06:48:13;100996.28;;;11.32;66.08
75886;BME280;64561;44.018;10.144;2023-04-16T06:50:41;100997.22;;;11.37;64.86
75886;BME280;64561;44.018;10.144;2023-04-16T06:53:08;101001.13;;;11.57;65.69
75886;BME280;64561;44.018;10.144;2023-04-16T06:55:34;101009.13;;;11.71;64.75
75886;BME280;64561;44.018;10.144;2023-04-16T06:58:01;101001.53;;;11.76;63.65
75886;BME280;64561;44.018;10.144;2023-04-16T07:00:29;100998.09;;;11.75;65.25
75886;BME280;64561;44.018;10.144;2023-04-16T07:02:58;101014.41;;;11.79;64.30
75886;BME280;64561;44.018;10.144;2023-04-16T07:05:27;101003.38;;;11.81;63.93
75886;BME280;64561;44.018;10.144;2023-04-16T07:07:53;101007.84;;;11.88;62.54
75886;BME280;64561;44.018;10.144;2023-04-16T07:10:22;101008.06;;;11.99;59.25
75886;BME280;64561;44.018;10.144;2023-04-16T07:12:49;101001.34;;;12.06;60.88
75886;BME280;64561;44.018;10.144;2023-04-16T07:15:16;101005.25;;;12.29;58.50
75886;BME280;64561;44.018;10.144;2023-04-16T07:17:43;101005.38;;;12.35;59.66
75886;BME280;64561;44.018;10.144;2023-04-16T07:20:10;101011.69;;;12.54;57.35
75886;BME280;64561;44.018;10.144;2023-04-16T07:22:37;101013.63;;;12.66;58.29
75886;BME280;64561;44.018;10.144;2023-04-16T07:25:04;101012.03;;;12.71;55.48
75886;BME280;64561;44.018;10.144;2023-04-16T07:27:31;101012.94;;;12.75;55.05
75886;BME280;64561;44.018;10.144;2023-04-16T07:29:58;101008.13;;;12.93;58.02
75886;BME280;64561;44.018;10.144;2023-04-16T07:32:25;101014.31;;;13.03;52.89
75886;BME280;64561;44.018;10.144;2023-04-16T07:34:52;100998.03;;;13.04;53.39
75886;BME280;64561;44.018;10.144;2023-04-16T07:37:19;101010.19;;;13.13;55.04
75886;BME280;64561;44.018;10.144;2023-04-16T07:39:45;101020.50;;;13.17;56.02
75886;BME280;64561;44.018;10.144;2023-04-16T07:42:12;101016.25;;;13.18;57.33
75886;BME280;64561;44.018;10.144;2023-04-16T07:44:39;101021.53;;;13.25;56.38
75886;BME280;64561;44.018;10.144;2023-04-16T07:47:06;101014.75;;;13.29;55.08
75886;BME280;64561;44.018;10.144;2023-04-16T07:49:33;101016.72;;;13.47;54.65
75886;BME280;64561;44.018;10.144;2023-04-16T07:52:00;101008.50;;;13.69;54.50
75886;BME280;64561;44.018;10.144;2023-04-16T07:54:27;101017.41;;;13.93;53.60
75886;BME280;64561;44.018;10.144;2023-04-16T07:56:54;101008.16;;;14.09;50.47
75886;BME280;64561;44.018;10.144;2023-04-16T07:59:21;101015.94;;;14.13;50.27
75886;BME280;64561;44.018;10.144;2023-04-16T08:01:51;101012.50;;;14.11;50.88
75886;BME280;64561;44.018;10.144;2023-04-16T08:04:19;101021.09;;;14.16;51.70
75886;BME280;64561;44.018;10.144;2023-04-16T08:06:51;101022.81;;;14.16;52.42
75886;BME280;64561;44.018;10.144;2023-04-16T08:09:19;101021.19;;;14.23;51.03
75886;BME280;64561;44.018;10.144;2023-04-16T08:11:48;101019.53;;;14.26;52.30
75886;BME280;64561;44.018;10.144;2023-04-16T08:14:15;101029.03;;;14.33;54.28
75886;BME280;64561;44.018;10.144;2023-04-16T08:16:43;101027.28;;;14.31;53.39
75886;BME280;64561;44.018;10.144;2023-04-16T08:19:09;101027.22;;;14.23;53.29
75886;BME280;64561;44.018;10.144;2023-04-16T08:21:37;101036.63;;;14.23;50.41
75886;BME280;64561;44.018;10.144;2023-04-16T08:24:04;101032.41;;;14.28;50.10
75886;BME280;64561;44.018;10.144;2023-04-16T08:26:31;101050.44;;;14.26;50.05
75886;BME280;64561;44.018;10.144;2023-04-16T08:28:58;101046.06;;;14.22;48.41
75886;BME280;64561;44.018;10.144;2023-04-16T08:31:24;101043.44;;;14.17;44.28
75886;BME280;64561;44.018;10.144;2023-04-16T08:33:51;101048.59;;;14.17;47.13
75886;BME280;64561;44.018;10.144;2023-04-16T08:36:18;101052.13;;;14.29;43.85
75886;BME280;64561;44.018;10.144;2023-04-16T08:38:47;101049.63;;;14.33;46.00
75886;BME280;64561;44.018;10.144;2023-04-16T08:41:14;101059.97;;;14.38;46.34
75886;BME280;64561;44.018;10.144;2023-04-16T08:43:43;101063.47;;;14.43;44.06
75886;BME280;64561;44.018;10.144;2023-04-16T08:46:11;101059.06;;;14.33;46.85
75886;BME280;64561;44.018;10.144;2023-04-16T08:48:41;101059.00;;;14.28;49.55
75886;BME280;64561;44.018;10.144;2023-04-16T08:51:09;101067.56;;;14.26;46.51
75886;BME280;64561;44.018;10.144;2023-04-16T08:53:47;101066.69;;;14.25;50.46
75886;BME280;64561;44.018;10.144;2023-04-16T08:56:22;101068.53;;;14.34;46.27
75886;BME280;64561;44.018;10.144;2023-04-16T08:58:50;101067.63;;;14.32;45.49
75886;BME280;64561;44.018;10.144;2023-04-16T09:01:17;101071.13;;;14.37;44.62
75886;BME280;64561;44.018;10.144;2023-04-16T09:03:48;101070.53;;;14.55;45.38
75886;BME280;64561;44.018;10.144;2023-04-16T09:06:15;101076.53;;;14.55;43.37
75886;BME280;64561;44.018;10.144;2023-04-16T09:08:43;101076.38;;;14.46;41.96
75886;BME280;64561;44.018;10.144;2023-04-16T09:11:17;101080.59;;;14.39;45.36
75886;BME280;64561;44.018;10.144;2023-04-16T09:13:45;101081.38;;;14.34;47.01
75886;BME280;64561;44.018;10.144;2023-04-16T09:16:13;101090.72;;;14.26;48.15
75886;BME280;64561;44.018;10.144;2023-04-16T09:18:40;101089.81;;;14.21;47.65
75886;BME280;64561;44.018;10.144;2023-04-16T09:21:11;101088.91;;;14.17;46.66
75886;BME280;64561;44.018;10.144;2023-04-16T09:23:39;101082.16;;;14.28;49.11
75886;BME280;64561;44.018;10.144;2023-04-16T09:26:06;101088.38;;;14.41;48.95
75886;BME280;64561;44.018;10.144;2023-04-16T09:28:43;101092.59;;;14.36;49.37
75886;BME280;64561;44.018;10.144;2023-04-16T09:31:15;101088.19;;;14.29;49.72
75886;BME280;64561;44.018;10.144;2023-04-16T09:33:59;101097.63;;;14.27;49.94
75886;BME280;64561;44.018;10.144;2023-04-16T09:36:27;101090.72;;;14.26;48.43
75886;BME280;64561;44.018;10.144;2023-04-16T09:38:54;101085.59;;;14.29;48.57
75886;BME280;64561;44.018;10.144;2023-04-16T09:41:25;101089.13;;;14.34;49.24
75886;BME280;64561;44.018;10.144;2023-04-16T09:44:01;101100.53;;;14.51;49.82
75886;BME280;64561;44.018;10.144;2023-04-16T09:46:30;101088.84;;;14.82;47.66
75886;BME280;64561;44.018;10.144;2023-04-16T09:48:57;101090.00;;;15.11;48.56
75886;BME280;64561;44.018;10.144;2023-04-16T09:51:36;101084.88;;;15.15;45.96
75886;BME280;64561;44.018;10.144;2023-04-16T09:54:04;101075.50;;;15.23;47.56
75886;BME280;64561;44.018;10.144;2023-04-16T09:56:31;101081.69;;;15.41;43.12
75886;BME280;64561;44.018;10.144;2023-04-16T09:59:01;101089.47;;;15.47;45.52
75886;BME280;64561;44.018;10.144;2023-04-16T10:01:29;101075.63;;;15.39;44.48
75886;BME280;64561;44.018;10.144;2023-04-16T10:03:58;101079.88;;;15.32;45.57
75886;BME280;64561;44.018;10.144;2023-04-16T10:06:28;101082.38;;;15.24;45.98
75886;BME280;64561;44.018;10.144;2023-04-16T10:08:55;101084.06;;;15.18;44.22
75886;BME280;64561;44.018;10.144;2023-04-16T10:11:22;101084.91;;;15.17;44.00
75886;BME280;64561;44.018;10.144;2023-04-16T10:13:49;101084.06;;;15.18;45.05
75886;BME280;64561;44.018;10.144;2023-04-16T10:16:17;101079.84;;;15.26;43.74
75886;BME280;64561;44.018;10.144;2023-04-16T10:18:45;101078.28;;;15.45;44.39
75886;BME280;64561;44.018;10.144;2023-04-16T10:21:12;101081.88;;;15.67;43.72
75886;BME280;64561;44.018;10.144;2023-04-16T10:23:42;101079.47;;;15.91;42.50
75886;BME280;64561;44.018;10.144;2023-04-16T10:26:09;101059.81;;;16.13;41.13
75886;BME280;64561;44.018;10.144;2023-04-16T10:28:36;101079.69;;;16.28;44.09
75886;BME280;64561;44.018;10.144;2023-04-16T10:31:06;101071.16;;;16.49;41.12
75886;BME280;64561;44.018;10.144;2023-04-16T10:33:36;101067.78;;;16.67;41.43
75886;BME280;64561;44.018;10.144;2023-04-16T10:36:08;101066.06;;;16.74;41.68
75886;BME280;64561;44.018;10.144;2023-04-16T10:38:59;101072.13;;;16.77;44.90
75886;BME280;64561;44.018;10.144;2023-04-16T10:41:26;101072.16;;;16.92;40.50
75886;BME280;64561;44.018;10.144;2023-04-16T10:44:07;101065.28;;;17.13;36.98
75886;BME280;64561;44.018;10.144;2023-04-16T10:49:12;101054.94;;;17.37;38.45
75886;BME280;64561;44.018;10.144;2023-04-16T10:51:40;101064.44;;;17.49;41.24
75886;BME280;64561;44.018;10.144;2023-04-16T10:56:36;101052.34;;;17.62;39.03
75886;BME280;64561;44.018;10.144;2023-04-16T10:59:04;101061.81;;;17.68;38.44
75886;BME280;64561;44.018;10.144;2023-04-16T11:01:36;101055.78;;;17.70;38.03
75886;BME280;64561;44.018;10.144;2023-04-16T11:12:14;101038.50;;;17.86;39.01
75886;BME280;64561;44.018;10.144;2023-04-16T11:14:43;101035.06;;;17.93;37.04
75886;BME280;64561;44.018;10.144;2023-04-16T11:17:12;101037.63;;;17.99;37.87
75886;BME280;64561;44.018;10.144;2023-04-16T11:19:41;101037.63;;;17.96;37.64
75886;BME280;64561;44.018;10.144;2023-04-16T11:22:14;101037.59;;;18.09;37.81
75886;BME280;64561;44.018;10.144;2023-04-16T11:24:44;101034.09;;;18.17;38.04
75886;BME280;64561;44.018;10.144;2023-04-16T11:27:14;101032.38;;;18.16;34.40
75886;BME280;64561;44.018;10.144;2023-04-16T11:29:41;101030.66;;;18.15;34.27
75886;BME280;64561;44.018;10.144;2023-04-16T11:32:19;101034.09;;;18.17;36.43
75886;BME280;64561;44.018;10.144;2023-04-16T11:34:47;101024.56;;;18.24;35.08
75886;BME280;64561;44.018;10.144;2023-04-16T11:37:14;101035.81;;;18.21;35.57
75886;BME280;64561;44.018;10.144;2023-04-16T11:39:49;101028.84;;;18.31;34.81
75886;BME280;64561;44.018;10.144;2023-04-16T11:42:20;101015.84;;;18.40;33.80
75886;BME280;64561;44.018;10.144;2023-04-16T11:44:52;101024.47;;;18.45;34.09
75886;BME280;64561;44.018;10.144;2023-04-16T11:47:20;101015.78;;;18.52;36.38
75886;BME280;64561;44.018;10.144;2023-04-16T11:49:47;101019.19;;;18.61;36.39
75886;BME280;64561;44.018;10.144;2023-04-16T11:52:27;101007.94;;;18.63;35.60
75886;BME280;64561;44.018;10.144;2023-04-16T11:54:55;101012.22;;;18.72;34.82
75886;BME280;64561;44.018;10.144;2023-04-16T11:57:26;101010.50;;;18.76;33.11
75886;BME280;64561;44.018;10.144;2023-04-16T11:59:54;101012.22;;;18.78;35.18
75886;BME280;64561;44.018;10.144;2023-04-16T12:05:37;101003.50;;;18.87;32.84
75886;BME280;64561;44.018;10.144;2023-04-16T12:08:09;101001.75;;;18.86;36.12
75886;BME280;64561;44.018;10.144;2023-04-16T12:10:52;100995.66;;;18.93;34.25
75886;BME280;64561;44.018;10.144;2023-04-16T12:13:19;101000.75;;;19.05;34.48
75886;BME280;64561;44.018;10.144;2023-04-16T12:15:53;101005.97;;;19.01;34.52
75886;BME280;64561;44.018;10.144;2023-04-16T12:18:27;101003.31;;;19.08;39.48
75886;BME280;64561;44.018;10.144;2023-04-16T12:20:54;101012.84;;;19.08;39.08
75886;BME280;64561;44.018;10.144;2023-04-16T12:23:30;101014.59;;;19.04;36.28
75886;BME280;64561;44.018;10.144;2023-04-16T12:25:57;101012.09;;;18.93;39.09
75886;BME280;64561;44.018;10.144;2023-04-16T12:28:30;101016.38;;;18.98;39.52
75886;BME280;64561;44.018;10.144;2023-04-16T12:30:58;101004.25;;;19.00;41.95
75886;BME280;64561;44.018;10.144;2023-04-16T12:33:25;100999.13;;;18.93;41.05
75886;BME280;64561;44.018;10.144;2023-04-16T12:35:52;101011.28;;;18.85;39.65
75886;BME280;64561;44.018;10.144;2023-04-16T12:38:19;101012.16;;;18.84;43.94
75886;BME280;64561;44.018;10.144;2023-04-16T12:40:49;101006.09;;;18.85;42.55
75886;BME280;64561;44.018;10.144;2023-04-16T12:43:19;101004.38;;;18.83;44.02
75886;BME280;64561;44.018;10.144;2023-04-16T12:45:47;101006.13;;;18.84;42.49
75886;BME280;64561;44.018;10.144;2023-04-16T12:48:14;100996.66;;;18.77;45.04
75886;BME280;64561;44.018;10.144;2023-04-16T12:50:41;101000.94;;;18.84;41.77
75886;BME280;64561;44.018;10.144;2023-04-16T12:53:10;100997.47;;;18.80;42.58
75886;BME280;64561;44.018;10.144;2023-04-16T12:55:37;101000.97;;;18.70;44.64
75886;BME280;64561;44.018;10.144;2023-04-16T12:58:07;100999.28;;;18.64;45.15
75886;BME280;64561;44.018;10.144;2023-04-16T13:00:37;100994.16;;;18.58;46.24
75886;BME280;64561;44.018;10.144;2023-04-16T13:03:04;100993.34;;;18.48;46.43
75886;BME280;64561;44.018;10.144;2023-04-16T13:05:31;101000.31;;;18.37;44.38